sensor_id;sensor_type;location;lat;lon;timestamp;P1;durP1;ratioP1;P2;durP2;ratioP2
37781;SDS011;23621;50.878;4.584;2024-03-06T00:01:28;9.73;;;8.73;;
37781;SDS011;23621;50.878;4.584;2024-03-06T00:03:28;10.00;;;9.00;;
37781;SDS011;23621;50.878;4.584;2024-03-06T00:05:29;9.60;;;8.70;;
37781;SDS011;23621;50.878;4.584;2024-03-06T00:07:30;9.60;;;8.70;;
37781;SDS011;23621;50.878;4.584;2024-03-06T00:09:30;9.52;;;8.63;;
37781;SDS011;23621;50.878;4.584;2024-03-06T00:11:31;9.63;;;8.73;;
37781;SDS011;23621;50.878;4.584;2024-03-06T00:13:32;10.02;;;8.73;;
37781;SDS011;23621;50.878;4.584;2024-03-06T00:15:33;9.68;;;8.68;;
37781;SDS011;23621;50.878;4.584;2024-03-06T00:17:34;9.15;;;8.35;;
37781;SDS011;23621;50.878;4.584;2024-03-06T00:19:34;9.45;;;8.63;;
37781;SDS011;23621;50.878;4.584;2024-03-06T00:21:35;10.02;;;9.23;;
37781;SDS011;23621;50.878;4.584;2024-03-06T00:23:36;9.95;;;8.95;;
37781;SDS011;23621;50.878;4.584;2024-03-06T00:25:37;10.18;;;9.27;;
37781;SDS011;23621;50.878;4.584;2024-03-06T00:27:38;9.88;;;8.85;;
37781;SDS011;23621;50.878;4.584;2024-03-06T00:29:38;9.40;;;8.50;;
37781;SDS011;23621;50.878;4.584;2024-03-06T00:31:42;10.55;;;9.55;;
37781;SDS011;23621;50.878;4.584;2024-03-06T00:33:44;10.35;;;9.25;;
37781;SDS011;23621;50.878;4.584;2024-03-06T00:35:44;9.77;;;8.88;;
37781;SDS011;23621;50.878;4.584;2024-03-06T00:37:45;9.68;;;8.63;;
37781;SDS011;23621;50.878;4.584;2024-03-06T00:39:46;9.45;;;8.65;;
37781;SDS011;23621;50.878;4.584;2024-03-06T00:41:46;9.75;;;8.77;;
37781;SDS011;23621;50.878;4.584;2024-03-06T00:43:47;10.55;;;9.60;;
37781;SDS011;23621;50.878;4.584;2024-03-06T00:45:47;9.70;;;8.85;;
37781;SDS011;23621;50.878;4.584;2024-03-06T00:47:48;10.13;;;9.10;;
37781;SDS011;23621;50.878;4.584;2024-03-06T00:49:49;10.10;;;9.10;;
37781;SDS011;23621;50.878;4.584;2024-03-06T00:51:50;9.55;;;8.60;;
37781;SDS011;23621;50.878;4.584;2024-03-06T00:53:50;9.05;;;8.30;;
37781;SDS011;23621;50.878;4.584;2024-03-06T00:55:51;9.68;;;8.57;;
37781;SDS011;23621;50.878;4.584;2024-03-06T00:57:51;9.40;;;8.55;;
37781;SDS011;23621;50.878;4.584;2024-03-06T00:59:52;9.50;;;8.57;;
37781;SDS011;23621;50.878;4.584;2024-03-06T01:01:53;9.15;;;8.35;;
37781;SDS011;23621;50.878;4.584;2024-03-06T01:03:56;9.60;;;8.70;;
37781;SDS011;23621;50.878;4.584;2024-03-06T01:05:56;9.30;;;8.40;;
37781;SDS011;23621;50.878;4.584;2024-03-06T01:07:57;9.45;;;8.65;;
37781;SDS011;23621;50.878;4.584;2024-03-06T01:09:59;11.32;;;8.40;;
37781;SDS011;23621;50.878;4.584;2024-03-06T01:12:01;9.98;;;8.98;;
37781;SDS011;23621;50.878;4.584;2024-03-06T01:14:01;9.07;;;8.38;;
37781;SDS011;23621;50.878;4.584;2024-03-06T01:16:03;9.05;;;8.15;;
37781;SDS011;23621;50.878;4.584;2024-03-06T01:18:04;9.25;;;8.45;;
37781;SDS011;23621;50.878;4.584;2024-03-06T01:20:05;10.43;;;9.43;;
37781;SDS011;23621;50.878;4.584;2024-03-06T01:22:07;10.00;;;9.05;;
37781;SDS011;23621;50.878;4.584;2024-03-06T01:24:08;9.65;;;8.68;;
37781;SDS011;23621;50.878;4.584;2024-03-06T01:26:08;9.30;;;8.60;;
37781;SDS011;23621;50.878;4.584;2024-03-06T01:28:09;9.15;;;8.43;;
37781;SDS011;23621;50.878;4.584;2024-03-06T01:30:10;9.25;;;8.45;;
37781;SDS011;23621;50.878;4.584;2024-03-06T01:32:10;8.93;;;8.13;;
37781;SDS011;23621;50.878;4.584;2024-03-06T01:34:11;8.70;;;7.93;;
37781;SDS011;23621;50.878;4.584;2024-03-06T01:36:12;9.10;;;8.25;;
37781;SDS011;23621;50.878;4.584;2024-03-06T01:38:12;9.88;;;8.98;;
37781;SDS011;23621;50.878;4.584;2024-03-06T01:40:15;9.88;;;9.02;;
37781;SDS011;23621;50.878;4.584;2024-03-06T01:42:16;9.98;;;9.07;;
37781;SDS011;23621;50.878;4.584;2024-03-06T01:44:18;10.68;;;9.60;;
37781;SDS011;23621;50.878;4.584;2024-03-06T01:46:19;10.50;;;9.50;;
37781;SDS011;23621;50.878;4.584;2024-03-06T01:48:20;11.23;;;9.98;;
37781;SDS011;23621;50.878;4.584;2024-03-06T01:50:23;10.07;;;9.13;;
37781;SDS011;23621;50.878;4.584;2024-03-06T01:52:24;10.20;;;9.27;;
37781;SDS011;23621;50.878;4.584;2024-03-06T01:54:25;11.25;;;10.15;;
37781;SDS011;23621;50.878;4.584;2024-03-06T01:56:26;11.20;;;9.73;;
37781;SDS011;23621;50.878;4.584;2024-03-06T01:58:28;11.25;;;9.88;;
37781;SDS011;23621;50.878;4.584;2024-03-06T02:00:28;11.75;;;10.60;;
37781;SDS011;23621;50.878;4.584;2024-03-06T02:02:29;11.80;;;10.55;;
37781;SDS011;23621;50.878;4.584;2024-03-06T02:04:31;11.70;;;10.55;;
37781;SDS011;23621;50.878;4.584;2024-03-06T02:06:32;11.55;;;10.35;;
37781;SDS011;23621;50.878;4.584;2024-03-06T02:08:33;10.88;;;9.77;;
37781;SDS011;23621;50.878;4.584;2024-03-06T02:10:34;11.45;;;10.35;;
37781;SDS011;23621;50.878;4.584;2024-03-06T02:12:34;11.63;;;10.50;;
37781;SDS011;23621;50.878;4.584;2024-03-06T02:14:35;11.55;;;10.35;;
37781;SDS011;23621;50.878;4.584;2024-03-06T02:16:36;11.45;;;10.10;;
37781;SDS011;23621;50.878;4.584;2024-03-06T02:18:50;11.75;;;10.65;;
37781;SDS011;23621;50.878;4.584;2024-03-06T02:20:52;11.48;;;10.40;;
37781;SDS011;23621;50.878;4.584;2024-03-06T02:22:53;11.95;;;10.80;;
37781;SDS011;23621;50.878;4.584;2024-03-06T02:24:53;11.98;;;10.18;;
37781;SDS011;23621;50.878;4.584;2024-03-06T02:26:55;11.35;;;10.02;;
37781;SDS011;23621;50.878;4.584;2024-03-06T02:28:56;11.98;;;10.88;;
37781;SDS011;23621;50.878;4.584;2024-03-06T02:30:58;12.20;;;10.95;;
37781;SDS011;23621;50.878;4.584;2024-03-06T02:32:59;11.88;;;10.73;;
37781;SDS011;23621;50.878;4.584;2024-03-06T02:35:00;11.95;;;10.85;;
37781;SDS011;23621;50.878;4.584;2024-03-06T02:37:03;11.45;;;10.35;;
37781;SDS011;23621;50.878;4.584;2024-03-06T02:39:03;10.63;;;9.73;;
37781;SDS011;23621;50.878;4.584;2024-03-06T02:41:09;12.27;;;11.07;;
37781;SDS011;23621;50.878;4.584;2024-03-06T02:43:10;12.48;;;11.15;;
37781;SDS011;23621;50.878;4.584;2024-03-06T02:45:10;12.80;;;11.60;;
37781;SDS011;23621;50.878;4.584;2024-03-06T02:47:11;12.60;;;10.52;;
37781;SDS011;23621;50.878;4.584;2024-03-06T02:49:12;12.63;;;11.32;;
37781;SDS011;23621;50.878;4.584;2024-03-06T02:51:17;11.95;;;10.88;;
37781;SDS011;23621;50.878;4.584;2024-03-06T02:53:22;12.52;;;11.23;;
37781;SDS011;23621;50.878;4.584;2024-03-06T02:55:22;12.00;;;10.77;;
37781;SDS011;23621;50.878;4.584;2024-03-06T02:57:27;12.70;;;11.40;;
37781;SDS011;23621;50.878;4.584;2024-03-06T02:59:28;12.10;;;10.90;;
37781;SDS011;23621;50.878;4.584;2024-03-06T03:01:30;12.48;;;11.30;;
37781;SDS011;23621;50.878;4.584;2024-03-06T03:03:30;12.88;;;11.13;;
37781;SDS011;23621;50.878;4.584;2024-03-06T03:05:31;12.13;;;10.93;;
37781;SDS011;23621;50.878;4.584;2024-03-06T03:07:33;12.63;;;11.43;;
37781;SDS011;23621;50.878;4.584;2024-03-06T03:09:34;13.00;;;11.70;;
37781;SDS011;23621;50.878;4.584;2024-03-06T03:11:36;12.38;;;11.10;;
37781;SDS011;23621;50.878;4.584;2024-03-06T03:13:36;11.63;;;10.63;;
37781;SDS011;23621;50.878;4.584;2024-03-06T03:15:37;11.93;;;10.68;;
37781;SDS011;23621;50.878;4.584;2024-03-06T03:17:38;12.38;;;11.27;;
37781;SDS011;23621;50.878;4.584;2024-03-06T03:19:39;12.63;;;11.32;;
37781;SDS011;23621;50.878;4.584;2024-03-06T03:21:43;12.30;;;11.10;;
37781;SDS011;23621;50.878;4.584;2024-03-06T03:23:44;12.18;;;10.98;;
37781;SDS011;23621;50.878;4.584;2024-03-06T03:25:44;12.40;;;11.20;;
37781;SDS011;23621;50.878;4.584;2024-03-06T03:27:46;11.88;;;10.70;;
37781;SDS011;23621;50.878;4.584;2024-03-06T03:29:47;12.35;;;11.25;;
37781;SDS011;23621;50.878;4.584;2024-03-06T03:31:47;12.02;;;10.82;;
37781;SDS011;23621;50.878;4.584;2024-03-06T03:33:48;13.23;;;11.80;;
37781;SDS011;23621;50.878;4.584;2024-03-06T03:35:49;13.98;;;11.07;;
37781;SDS011;23621;50.878;4.584;2024-03-06T03:37:49;12.80;;;10.98;;
37781;SDS011;23621;50.878;4.584;2024-03-06T03:39:53;12.50;;;11.30;;
37781;SDS011;23621;50.878;4.584;2024-03-06T03:41:54;12.77;;;11.50;;
37781;SDS011;23621;50.878;4.584;2024-03-06T03:43:55;13.60;;;12.18;;
37781;SDS011;23621;50.878;4.584;2024-03-06T03:45:55;13.98;;;11.75;;
37781;SDS011;23621;50.878;4.584;2024-03-06T03:47:56;12.55;;;11.30;;
37781;SDS011;23621;50.878;4.584;2024-03-06T03:49:57;11.98;;;10.77;;
37781;SDS011;23621;50.878;4.584;2024-03-06T03:51:59;12.32;;;10.95;;
37781;SDS011;23621;50.878;4.584;2024-03-06T03:53:59;12.82;;;11.52;;
37781;SDS011;23621;50.878;4.584;2024-03-06T03:56:00;11.88;;;10.77;;
37781;SDS011;23621;50.878;4.584;2024-03-06T03:58:01;13.15;;;11.85;;
37781;SDS011;23621;50.878;4.584;2024-03-06T04:00:02;12.77;;;11.43;;
37781;SDS011;23621;50.878;4.584;2024-03-06T04:02:06;13.57;;;10.98;;
37781;SDS011;23621;50.878;4.584;2024-03-06T04:04:08;13.43;;;12.02;;
37781;SDS011;23621;50.878;4.584;2024-03-06T04:06:08;12.77;;;11.45;;
37781;SDS011;23621;50.878;4.584;2024-03-06T04:08:10;12.55;;;11.35;;
37781;SDS011;23621;50.878;4.584;2024-03-06T04:10:10;12.68;;;11.43;;
37781;SDS011;23621;50.878;4.584;2024-03-06T04:12:11;13.32;;;11.90;;
37781;SDS011;23621;50.878;4.584;2024-03-06T04:14:12;12.77;;;11.57;;
37781;SDS011;23621;50.878;4.584;2024-03-06T04:16:16;12.55;;;11.25;;
37781;SDS011;23621;50.878;4.584;2024-03-06T04:18:20;12.68;;;11.48;;
37781;SDS011;23621;50.878;4.584;2024-03-06T04:20:20;13.00;;;11.70;;
37781;SDS011;23621;50.878;4.584;2024-03-06T04:22:21;13.18;;;11.70;;
37781;SDS011;23621;50.878;4.584;2024-03-06T04:24:22;12.55;;;11.35;;
37781;SDS011;23621;50.878;4.584;2024-03-06T04:26:23;12.02;;;10.93;;
37781;SDS011;23621;50.878;4.584;2024-03-06T04:28:23;13.02;;;11.73;;
37781;SDS011;23621;50.878;4.584;2024-03-06T04:30:24;12.27;;;11.07;;
37781;SDS011;23621;50.878;4.584;2024-03-06T04:32:25;12.27;;;11.10;;
37781;SDS011;23621;50.878;4.584;2024-03-06T04:34:25;12.00;;;10.80;;
37781;SDS011;23621;50.878;4.584;2024-03-06T04:36:26;11.98;;;10.88;;
37781;SDS011;23621;50.878;4.584;2024-03-06T04:38:26;11.73;;;10.63;;
37781;SDS011;23621;50.878;4.584;2024-03-06T04:40:27;11.85;;;10.75;;
37781;SDS011;23621;50.878;4.584;2024-03-06T04:42:28;11.98;;;10.80;;
37781;SDS011;23621;50.878;4.584;2024-03-06T04:44:29;12.38;;;11.10;;
37781;SDS011;23621;50.878;4.584;2024-03-06T04:46:32;12.60;;;11.30;;
37781;SDS011;23621;50.878;4.584;2024-03-06T04:48:33;12.20;;;10.27;;
37781;SDS011;23621;50.878;4.584;2024-03-06T04:50:34;10.75;;;9.75;;
37781;SDS011;23621;50.878;4.584;2024-03-06T04:52:35;11.35;;;10.23;;
37781;SDS011;23621;50.878;4.584;2024-03-06T04:54:36;12.10;;;11.00;;
37781;SDS011;23621;50.878;4.584;2024-03-06T04:56:37;11.82;;;10.68;;
37781;SDS011;23621;50.878;4.584;2024-03-06T04:58:38;13.43;;;11.00;;
37781;SDS011;23621;50.878;4.584;2024-03-06T05:00:40;12.25;;;11.05;;
37781;SDS011;23621;50.878;4.584;2024-03-06T05:02:41;11.40;;;10.40;;
37781;SDS011;23621;50.878;4.584;2024-03-06T05:04:42;13.00;;;11.68;;
37781;SDS011;23621;50.878;4.584;2024-03-06T05:06:42;11.63;;;10.50;;
37781;SDS011;23621;50.878;4.584;2024-03-06T05:08:43;12.45;;;11.35;;
37781;SDS011;23621;50.878;4.584;2024-03-06T05:10:44;11.80;;;10.70;;
37781;SDS011;23621;50.878;4.584;2024-03-06T05:12:44;12.07;;;11.00;;
37781;SDS011;23621;50.878;4.584;2024-03-06T05:14:45;12.82;;;11.65;;
37781;SDS011;23621;50.878;4.584;2024-03-06T05:16:46;11.55;;;10.40;;
37781;SDS011;23621;50.878;4.584;2024-03-06T05:18:46;12.00;;;10.80;;
37781;SDS011;23621;50.878;4.584;2024-03-06T05:20:47;12.10;;;10.90;;
37781;SDS011;23621;50.878;4.584;2024-03-06T05:22:48;12.68;;;11.45;;
37781;SDS011;23621;50.878;4.584;2024-03-06T05:24:48;12.00;;;10.80;;
37781;SDS011;23621;50.878;4.584;2024-03-06T05:26:49;12.40;;;11.05;;
37781;SDS011;23621;50.878;4.584;2024-03-06T05:28:50;11.57;;;10.43;;
37781;SDS011;23621;50.878;4.584;2024-03-06T05:30:51;11.57;;;10.45;;
37781;SDS011;23621;50.878;4.584;2024-03-06T05:32:52;10.93;;;10.00;;
37781;SDS011;23621;50.878;4.584;2024-03-06T05:34:52;11.90;;;10.50;;
37781;SDS011;23621;50.878;4.584;2024-03-06T05:36:54;14.35;;;10.02;;
37781;SDS011;23621;50.878;4.584;2024-03-06T05:38:54;11.90;;;10.70;;
37781;SDS011;23621;50.878;4.584;2024-03-06T05:40:55;10.88;;;9.77;;
37781;SDS011;23621;50.878;4.584;2024-03-06T05:42:55;11.30;;;10.20;;
37781;SDS011;23621;50.878;4.584;2024-03-06T05:44:57;11.93;;;10.82;;
37781;SDS011;23621;50.878;4.584;2024-03-06T05:47:04;11.07;;;10.07;;
37781;SDS011;23621;50.878;4.584;2024-03-06T05:49:06;11.05;;;10.05;;
37781;SDS011;23621;50.878;4.584;2024-03-06T05:51:07;12.45;;;11.15;;
37781;SDS011;23621;50.878;4.584;2024-03-06T05:53:08;11.18;;;10.18;;
37781;SDS011;23621;50.878;4.584;2024-03-06T05:55:09;12.27;;;10.73;;
37781;SDS011;23621;50.878;4.584;2024-03-06T05:57:10;11.88;;;10.77;;
37781;SDS011;23621;50.878;4.584;2024-03-06T05:59:10;13.30;;;11.73;;
37781;SDS011;23621;50.878;4.584;2024-03-06T06:01:11;11.80;;;10.70;;
37781;SDS011;23621;50.878;4.584;2024-03-06T06:03:13;11.35;;;10.15;;
37781;SDS011;23621;50.878;4.584;2024-03-06T06:05:14;11.73;;;10.65;;
37781;SDS011;23621;50.878;4.584;2024-03-06T06:07:15;12.57;;;11.38;;
37781;SDS011;23621;50.878;4.584;2024-03-06T06:09:15;12.40;;;10.40;;
37781;SDS011;23621;50.878;4.584;2024-03-06T06:11:17;12.43;;;11.00;;
37781;SDS011;23621;50.878;4.584;2024-03-06T06:13:18;11.90;;;10.80;;
37781;SDS011;23621;50.878;4.584;2024-03-06T06:15:19;12.18;;;10.98;;
37781;SDS011;23621;50.878;4.584;2024-03-06T06:17:20;12.43;;;11.10;;
37781;SDS011;23621;50.878;4.584;2024-03-06T06:19:20;12.27;;;11.07;;
37781;SDS011;23621;50.878;4.584;2024-03-06T06:21:21;12.70;;;11.35;;
37781;SDS011;23621;50.878;4.584;2024-03-06T06:23:22;12.13;;;10.80;;
37781;SDS011;23621;50.878;4.584;2024-03-06T06:25:23;12.82;;;11.63;;
37781;SDS011;23621;50.878;4.584;2024-03-06T06:27:23;12.02;;;10.80;;
37781;SDS011;23621;50.878;4.584;2024-03-06T06:29:25;12.70;;;11.35;;
37781;SDS011;23621;50.878;4.584;2024-03-06T06:31:26;12.57;;;11.20;;
37781;SDS011;23621;50.878;4.584;2024-03-06T06:33:27;11.57;;;10.38;;
37781;SDS011;23621;50.878;4.584;2024-03-06T06:35:27;14.05;;;12.55;;
37781;SDS011;23621;50.878;4.584;2024-03-06T06:37:28;13.20;;;11.85;;
37781;SDS011;23621;50.878;4.584;2024-03-06T06:39:29;13.07;;;11.82;;
37781;SDS011;23621;50.878;4.584;2024-03-06T06:41:29;13.18;;;11.85;;
37781;SDS011;23621;50.878;4.584;2024-03-06T06:43:30;12.80;;;11.50;;
37781;SDS011;23621;50.878;4.584;2024-03-06T06:45:30;13.40;;;12.02;;
37781;SDS011;23621;50.878;4.584;2024-03-06T06:47:31;12.70;;;11.43;;
37781;SDS011;23621;50.878;4.584;2024-03-06T06:49:32;13.13;;;11.23;;
37781;SDS011;23621;50.878;4.584;2024-03-06T06:51:34;12.55;;;11.07;;
37781;SDS011;23621;50.878;4.584;2024-03-06T06:53:35;13.00;;;11.70;;
37781;SDS011;23621;50.878;4.584;2024-03-06T06:55:39;12.23;;;10.98;;
37781;SDS011;23621;50.878;4.584;2024-03-06T06:57:39;12.65;;;11.45;;
37781;SDS011;23621;50.878;4.584;2024-03-06T06:59:40;13.07;;;11.52;;
37781;SDS011;23621;50.878;4.584;2024-03-06T07:01:41;13.73;;;11.70;;
37781;SDS011;23621;50.878;4.584;2024-03-06T07:03:42;13.07;;;11.77;;
37781;SDS011;23621;50.878;4.584;2024-03-06T07:05:43;13.70;;;11.40;;
37781;SDS011;23621;50.878;4.584;2024-03-06T07:07:43;12.40;;;11.05;;
37781;SDS011;23621;50.878;4.584;2024-03-06T07:09:44;12.52;;;11.32;;
37781;SDS011;23621;50.878;4.584;2024-03-06T07:11:44;12.82;;;11.38;;
37781;SDS011;23621;50.878;4.584;2024-03-06T07:13:45;12.15;;;11.05;;
37781;SDS011;23621;50.878;4.584;2024-03-06T07:15:46;12.07;;;10.80;;
37781;SDS011;23621;50.878;4.584;2024-03-06T07:17:47;12.15;;;10.93;;
37781;SDS011;23621;50.878;4.584;2024-03-06T07:19:48;12.13;;;10.93;;
37781;SDS011;23621;50.878;4.584;2024-03-06T07:21:50;11.77;;;10.65;;
37781;SDS011;23621;50.878;4.584;2024-03-06T07:23:52;12.02;;;10.82;;
37781;SDS011;23621;50.878;4.584;2024-03-06T07:25:52;11.80;;;10.57;;
37781;SDS011;23621;50.878;4.584;2024-03-06T07:27:53;12.13;;;10.82;;
37781;SDS011;23621;50.878;4.584;2024-03-06T07:29:54;11.15;;;9.95;;
37781;SDS011;23621;50.878;4.584;2024-03-06T07:31:54;12.93;;;11.35;;
37781;SDS011;23621;50.878;4.584;2024-03-06T07:33:55;11.85;;;10.60;;
37781;SDS011;23621;50.878;4.584;2024-03-06T07:35:56;11.55;;;10.40;;
37781;SDS011;23621;50.878;4.584;2024-03-06T07:37:56;11.30;;;10.23;;
37781;SDS011;23621;50.878;4.584;2024-03-06T07:39:57;11.82;;;10.63;;
37781;SDS011;23621;50.878;4.584;2024-03-06T07:41:58;12.18;;;10.43;;
37781;SDS011;23621;50.878;4.584;2024-03-06T07:43:59;11.68;;;10.48;;
37781;SDS011;23621;50.878;4.584;2024-03-06T07:46:00;12.23;;;10.98;;
37781;SDS011;23621;50.878;4.584;2024-03-06T07:48:00;13.40;;;10.93;;
37781;SDS011;23621;50.878;4.584;2024-03-06T07:50:02;12.18;;;10.73;;
37781;SDS011;23621;50.878;4.584;2024-03-06T07:52:04;12.73;;;10.68;;
37781;SDS011;23621;50.878;4.584;2024-03-06T07:54:05;11.82;;;10.63;;
37781;SDS011;23621;50.878;4.584;2024-03-06T07:56:06;12.55;;;11.35;;
37781;SDS011;23621;50.878;4.584;2024-03-06T07:58:11;11.88;;;10.55;;
37781;SDS011;23621;50.878;4.584;2024-03-06T08:00:12;12.60;;;10.57;;
37781;SDS011;23621;50.878;4.584;2024-03-06T08:02:15;11.63;;;10.52;;
37781;SDS011;23621;50.878;4.584;2024-03-06T08:04:16;12.82;;;10.63;;
37781;SDS011;23621;50.878;4.584;2024-03-06T08:06:18;12.10;;;9.93;;
37781;SDS011;23621;50.878;4.584;2024-03-06T08:08:18;11.15;;;10.05;;
37781;SDS011;23621;50.878;4.584;2024-03-06T08:10:19;11.40;;;10.20;;
37781;SDS011;23621;50.878;4.584;2024-03-06T08:12:20;10.68;;;9.68;;
37781;SDS011;23621;50.878;4.584;2024-03-06T08:14:21;12.27;;;9.93;;
37781;SDS011;23621;50.878;4.584;2024-03-06T08:16:21;15.30;;;10.60;;
37781;SDS011;23621;50.878;4.584;2024-03-06T08:18:22;11.82;;;9.80;;
37781;SDS011;23621;50.878;4.584;2024-03-06T08:20:23;11.73;;;10.23;;
37781;SDS011;23621;50.878;4.584;2024-03-06T08:22:23;13.32;;;10.05;;
37781;SDS011;23621;50.878;4.584;2024-03-06T08:24:24;11.30;;;9.98;;
37781;SDS011;23621;50.878;4.584;2024-03-06T08:26:25;12.10;;;10.20;;
37781;SDS011;23621;50.878;4.584;2024-03-06T08:28:25;11.50;;;9.90;;
37781;SDS011;23621;50.878;4.584;2024-03-06T08:30:26;10.57;;;9.38;;
37781;SDS011;23621;50.878;4.584;2024-03-06T08:32:27;10.55;;;9.50;;
37781;SDS011;23621;50.878;4.584;2024-03-06T08:34:29;11.15;;;9.65;;
37781;SDS011;23621;50.878;4.584;2024-03-06T08:36:31;11.48;;;9.50;;
37781;SDS011;23621;50.878;4.584;2024-03-06T08:38:32;11.15;;;10.07;;
37781;SDS011;23621;50.878;4.584;2024-03-06T08:40:34;12.30;;;9.77;;
37781;SDS011;23621;50.878;4.584;2024-03-06T08:42:34;11.32;;;10.18;;
37781;SDS011;23621;50.878;4.584;2024-03-06T08:44:35;11.48;;;10.13;;
37781;SDS011;23621;50.878;4.584;2024-03-06T08:46:36;10.80;;;9.70;;
37781;SDS011;23621;50.878;4.584;2024-03-06T08:48:36;10.80;;;9.80;;
37781;SDS011;23621;50.878;4.584;2024-03-06T08:50:38;11.15;;;9.73;;
37781;SDS011;23621;50.878;4.584;2024-03-06T08:52:38;17.52;;;10.48;;
37781;SDS011;23621;50.878;4.584;2024-03-06T08:54:41;10.15;;;9.13;;
37781;SDS011;23621;50.878;4.584;2024-03-06T08:56:44;10.63;;;9.45;;
37781;SDS011;23621;50.878;4.584;2024-03-06T08:58:45;10.30;;;9.40;;
37781;SDS011;23621;50.878;4.584;2024-03-06T09:00:45;10.38;;;9.30;;
37781;SDS011;23621;50.878;4.584;2024-03-06T09:02:48;11.68;;;10.10;;
37781;SDS011;23621;50.878;4.584;2024-03-06T09:04:49;10.10;;;8.85;;
37781;SDS011;23621;50.878;4.584;2024-03-06T09:06:53;10.75;;;9.43;;
37781;SDS011;23621;50.878;4.584;2024-03-06T09:08:54;10.65;;;9.65;;
37781;SDS011;23621;50.878;4.584;2024-03-06T09:10:55;12.02;;;9.45;;
37781;SDS011;23621;50.878;4.584;2024-03-06T09:12:58;10.60;;;9.50;;
37781;SDS011;23621;50.878;4.584;2024-03-06T09:15:00;12.23;;;9.25;;
37781;SDS011;23621;50.878;4.584;2024-03-06T09:17:01;10.50;;;9.45;;
37781;SDS011;23621;50.878;4.584;2024-03-06T09:19:02;11.55;;;9.75;;
37781;SDS011;23621;50.878;4.584;2024-03-06T09:21:03;10.85;;;9.75;;
37781;SDS011;23621;50.878;4.584;2024-03-06T09:23:04;10.35;;;9.25;;
37781;SDS011;23621;50.878;4.584;2024-03-06T09:25:05;11.13;;;8.98;;
37781;SDS011;23621;50.878;4.584;2024-03-06T09:27:06;12.07;;;9.40;;
37781;SDS011;23621;50.878;4.584;2024-03-06T09:29:07;11.07;;;8.82;;
37781;SDS011;23621;50.878;4.584;2024-03-06T09:31:07;9.57;;;8.43;;
37781;SDS011;23621;50.878;4.584;2024-03-06T09:33:08;10.07;;;8.38;;
37781;SDS011;23621;50.878;4.584;2024-03-06T09:35:08;9.35;;;8.45;;
37781;SDS011;23621;50.878;4.584;2024-03-06T09:37:09;10.02;;;8.20;;
37781;SDS011;23621;50.878;4.584;2024-03-06T09:39:10;8.52;;;7.60;;
37781;SDS011;23621;50.878;4.584;2024-03-06T09:41:12;8.90;;;7.63;;
37781;SDS011;23621;50.878;4.584;2024-03-06T09:43:13;9.30;;;8.15;;
37781;SDS011;23621;50.878;4.584;2024-03-06T09:45:14;8.13;;;7.22;;
37781;SDS011;23621;50.878;4.584;2024-03-06T09:47:16;9.02;;;8.13;;
37781;SDS011;23621;50.878;4.584;2024-03-06T09:49:23;10.38;;;7.93;;
37781;SDS011;23621;50.878;4.584;2024-03-06T09:51:24;8.90;;;8.00;;
37781;SDS011;23621;50.878;4.584;2024-03-06T09:53:24;8.20;;;7.35;;
37781;SDS011;23621;50.878;4.584;2024-03-06T09:55:26;9.00;;;8.05;;
37781;SDS011;23621;50.878;4.584;2024-03-06T09:57:27;9.10;;;8.05;;
37781;SDS011;23621;50.878;4.584;2024-03-06T09:59:28;8.80;;;7.90;;
37781;SDS011;23621;50.878;4.584;2024-03-06T10:01:29;10.65;;;8.00;;
37781;SDS011;23621;50.878;4.584;2024-03-06T10:03:36;11.00;;;8.45;;
37781;SDS011;23621;50.878;4.584;2024-03-06T10:05:37;9.60;;;8.07;;
37781;SDS011;23621;50.878;4.584;2024-03-06T10:07:37;10.60;;;8.15;;
37781;SDS011;23621;50.878;4.584;2024-03-06T10:09:39;9.95;;;7.95;;
37781;SDS011;23621;50.878;4.584;2024-03-06T10:11:40;8.85;;;7.55;;
37781;SDS011;23621;50.878;4.584;2024-03-06T10:13:42;10.30;;;9.20;;
37781;SDS011;23621;50.878;4.584;2024-03-06T10:16:04;9.90;;;8.43;;
37781;SDS011;23621;50.878;4.584;2024-03-06T10:20:19;10.27;;;7.57;;
37781;SDS011;23621;50.878;4.584;2024-03-06T10:22:24;8.82;;;7.63;;
37781;SDS011;23621;50.878;4.584;2024-03-06T10:24:28;10.23;;;7.63;;
37781;SDS011;23621;50.878;4.584;2024-03-06T10:26:30;9.48;;;7.70;;
37781;SDS011;23621;50.878;4.584;2024-03-06T10:28:31;8.45;;;7.10;;
37781;SDS011;23621;50.878;4.584;2024-03-06T10:30:33;9.63;;;7.35;;
37781;SDS011;23621;50.878;4.584;2024-03-06T10:32:37;9.30;;;7.35;;
37781;SDS011;23621;50.878;4.584;2024-03-06T10:34:38;10.40;;;7.20;;
37781;SDS011;23621;50.878;4.584;2024-03-06T10:36:40;9.52;;;7.72;;
37781;SDS011;23621;50.878;4.584;2024-03-06T10:38:42;10.63;;;7.47;;
37781;SDS011;23621;50.878;4.584;2024-03-06T10:40:45;10.05;;;8.10;;
37781;SDS011;23621;50.878;4.584;2024-03-06T10:42:45;12.38;;;7.75;;
37781;SDS011;23621;50.878;4.584;2024-03-06T10:44:53;9.10;;;7.47;;
37781;SDS011;23621;50.878;4.584;2024-03-06T10:46:58;12.98;;;8.05;;
37781;SDS011;23621;50.878;4.584;2024-03-06T10:49:00;9.80;;;8.05;;
37781;SDS011;23621;50.878;4.584;2024-03-06T10:51:03;8.98;;;7.43;;
37781;SDS011;23621;50.878;4.584;2024-03-06T10:53:06;8.20;;;7.40;;
37781;SDS011;23621;50.878;4.584;2024-03-06T10:55:10;9.00;;;6.85;;
37781;SDS011;23621;50.878;4.584;2024-03-06T10:57:12;9.52;;;8.13;;
37781;SDS011;23621;50.878;4.584;2024-03-06T10:59:14;7.68;;;6.88;;
37781;SDS011;23621;50.878;4.584;2024-03-06T11:01:16;8.05;;;7.25;;
37781;SDS011;23621;50.878;4.584;2024-03-06T11:03:17;9.27;;;6.72;;
37781;SDS011;23621;50.878;4.584;2024-03-06T11:05:17;7.60;;;6.80;;
37781;SDS011;23621;50.878;4.584;2024-03-06T11:07:18;8.23;;;7.00;;
37781;SDS011;23621;50.878;4.584;2024-03-06T11:09:19;7.90;;;6.75;;
37781;SDS011;23621;50.878;4.584;2024-03-06T11:11:22;8.02;;;7.05;;
37781;SDS011;23621;50.878;4.584;2024-03-06T11:13:24;7.43;;;6.15;;
37781;SDS011;23621;50.878;4.584;2024-03-06T11:15:29;8.80;;;6.50;;
37781;SDS011;23621;50.878;4.584;2024-03-06T11:17:29;9.77;;;7.10;;
37781;SDS011;23621;50.878;4.584;2024-03-06T11:19:30;8.93;;;6.97;;
37781;SDS011;23621;50.878;4.584;2024-03-06T11:21:32;8.65;;;6.57;;
37781;SDS011;23621;50.878;4.584;2024-03-06T11:23:33;8.68;;;6.50;;
37781;SDS011;23621;50.878;4.584;2024-03-06T11:28:03;7.20;;;5.53;;
37781;SDS011;23621;50.878;4.584;2024-03-06T11:30:11;6.53;;;5.80;;
37781;SDS011;23621;50.878;4.584;2024-03-06T11:32:13;6.85;;;5.30;;
37781;SDS011;23621;50.878;4.584;2024-03-06T11:34:17;9.73;;;6.07;;
37781;SDS011;23621;50.878;4.584;2024-03-06T11:38:23;7.45;;;5.50;;
37781;SDS011;23621;50.878;4.584;2024-03-06T11:40:26;7.20;;;5.32;;
37781;SDS011;23621;50.878;4.584;2024-03-06T11:42:34;7.60;;;5.45;;
37781;SDS011;23621;50.878;4.584;2024-03-06T11:44:36;8.13;;;5.50;;
37781;SDS011;23621;50.878;4.584;2024-03-06T11:48:56;7.60;;;4.72;;
37781;SDS011;23621;50.878;4.584;2024-03-06T11:50:58;6.22;;;5.10;;
37781;SDS011;23621;50.878;4.584;2024-03-06T11:52:59;7.30;;;5.43;;
37781;SDS011;23621;50.878;4.584;2024-03-06T11:55:00;7.30;;;5.20;;
37781;SDS011;23621;50.878;4.584;2024-03-06T11:57:01;5.15;;;4.53;;
37781;SDS011;23621;50.878;4.584;2024-03-06T11:59:03;5.80;;;5.20;;
37781;SDS011;23621;50.878;4.584;2024-03-06T12:01:06;5.47;;;4.72;;
37781;SDS011;23621;50.878;4.584;2024-03-06T12:03:07;7.18;;;4.50;;
37781;SDS011;23621;50.878;4.584;2024-03-06T12:05:08;5.88;;;4.53;;
37781;SDS011;23621;50.878;4.584;2024-03-06T12:07:10;4.75;;;4.13;;